sensor_id;sensor_type;location;lat;lon;timestamp;pressure;altitude;pressure_sealevel;temperature;humidity
64521;BME280;50896;46.714;17.322;2024-01-15T00:01:43;99305.56;;;-4.89;100.00
64521;BME280;50896;46.714;17.322;2024-01-15T00:04:40;99298.66;;;-4.88;100.00
64521;BME280;50896;46.714;17.322;2024-01-15T00:08:09;99301.44;;;-4.77;100.00
64521;BME280;50896;46.714;17.322;2024-01-15T00:11:15;99293.91;;;-4.82;100.00
64521;BME280;50896;46.714;17.322;2024-01-15T00:14:28;99287.69;;;-4.79;100.00
64521;BME280;50896;46.714;17.322;2024-01-15T00:19:55;99271.38;;;-4.95;100.00
64521;BME280;50896;46.714;17.322;2024-01-15T00:22:29;99269.28;;;-5.03;100.00
64521;BME280;50896;46.714;17.322;2024-01-15T00:25:10;99271.75;;;-5.02;100.00
64521;BME280;50896;46.714;17.322;2024-01-15T00:27:37;99266.38;;;-5.13;100.00
64521;BME280;50896;46.714;17.322;2024-01-15T00:30:10;99276.38;;;-5.21;100.00
64521;BME280;50896;46.714;17.322;2024-01-15T00:32:40;99271.00;;;-5.18;100.00
64521;BME280;50896;46.714;17.322;2024-01-15T00:35:10;99264.31;;;-5.22;100.00
64521;BME280;50896;46.714;17.322;2024-01-15T00:37:40;99263.13;;;-5.17;100.00
64521;BME280;50896;46.714;17.322;2024-01-15T00:40:07;99255.09;;;-5.12;100.00
64521;BME280;50896;46.714;17.322;2024-01-15T00:42:38;99246.38;;;-5.11;100.00
64521;BME280;50896;46.714;17.322;2024-01-15T00:45:09;99239.47;;;-5.10;100.00
64521;BME280;50896;46.714;17.322;2024-01-15T00:48:05;99252.22;;;-5.07;100.00
64521;BME280;50896;46.714;17.322;2024-01-15T00:50:38;99255.66;;;-5.07;100.00
64521;BME280;50896;46.714;17.322;2024-01-15T00:53:07;99252.03;;;-5.04;100.00
64521;BME280;50896;46.714;17.322;2024-01-15T00:55:40;99249.16;;;-5.00;100.00
64521;BME280;50896;46.714;17.322;2024-01-15T00:58:08;99247.63;;;-5.02;100.00
64521;BME280;50896;46.714;17.322;2024-01-15T01:00:40;99254.44;;;-5.01;100.00
64521;BME280;50896;46.714;17.322;2024-01-15T01:03:08;99251.69;;;-4.98;100.00
64521;BME280;50896;46.714;17.322;2024-01-15T01:05:36;99247.78;;;-4.91;100.00
64521;BME280;50896;46.714;17.322;2024-01-15T01:08:09;99243.91;;;-4.98;100.00
64521;BME280;50896;46.714;17.322;2024-01-15T01:10:35;99249.16;;;-5.00;100.00
64521;BME280;50896;46.714;17.322;2024-01-15T01:13:03;99240.56;;;-5.00;100.00
64521;BME280;50896;46.714;17.322;2024-01-15T01:15:30;99244.25;;;-5.04;100.00
64521;BME280;50896;46.714;17.322;2024-01-15T01:17:57;99243.44;;;-5.05;100.00
64521;BME280;50896;46.714;17.322;2024-01-15T01:20:24;99246.13;;;-5.06;100.00
64521;BME280;50896;46.714;17.322;2024-01-15T01:22:51;99245.03;;;-5.02;100.00
64521;BME280;50896;46.714;17.322;2024-01-15T01:25:20;99243.16;;;-5.00;100.00
64521;BME280;50896;46.714;17.322;2024-01-15T01:27:47;99233.81;;;-5.03;100.00
64521;BME280;50896;46.714;17.322;2024-01-15T01:30:14;99233.81;;;-5.03;100.00
64521;BME280;50896;46.714;17.322;2024-01-15T01:32:41;99230.09;;;-4.99;100.00
64521;BME280;50896;46.714;17.322;2024-01-15T01:35:08;99222.69;;;-5.05;100.00
64521;BME280;50896;46.714;17.322;2024-01-15T01:37:35;99217.78;;;-5.09;100.00
64521;BME280;50896;46.714;17.322;2024-01-15T01:40:02;99222.31;;;-5.13;100.00
64521;BME280;50896;46.714;17.322;2024-01-15T01:42:29;99217.13;;;-5.13;100.00
64521;BME280;50896;46.714;17.322;2024-01-15T01:44:56;99213.63;;;-5.12;100.00
64521;BME280;50896;46.714;17.322;2024-01-15T01:47:23;99204.47;;;-5.18;100.00
64521;BME280;50896;46.714;17.322;2024-01-15T01:49:53;99189.94;;;-5.20;100.00
64521;BME280;50896;46.714;17.322;2024-01-15T01:52:20;99190.28;;;-5.26;100.00
64521;BME280;50896;46.714;17.322;2024-01-15T01:54:48;99185.09;;;-5.26;100.00
64521;BME280;50896;46.714;17.322;2024-01-15T01:57:15;99178.09;;;-5.24;100.00
64521;BME280;50896;46.714;17.322;2024-01-15T01:59:44;99177.13;;;-5.23;100.00
64521;BME280;50896;46.714;17.322;2024-01-15T02:02:12;99174.19;;;-5.17;100.00
64521;BME280;50896;46.714;17.322;2024-01-15T02:04:39;99179.00;;;-5.11;100.00
64521;BME280;50896;46.714;17.322;2024-01-15T02:07:06;99168.38;;;-5.06;100.00
64521;BME280;50896;46.714;17.322;2024-01-15T02:09:33;99162.22;;;-5.05;100.00
64521;BME280;50896;46.714;17.322;2024-01-15T02:12:01;99156.69;;;-4.99;100.00
64521;BME280;50896;46.714;17.322;2024-01-15T02:14:28;99148.53;;;-4.93;100.00
64521;BME280;50896;46.714;17.322;2024-01-15T02:16:57;99142.41;;;-4.92;100.00
64521;BME280;50896;46.714;17.322;2024-01-15T02:19:24;99139.63;;;-4.89;100.00
64521;BME280;50896;46.714;17.322;2024-01-15T02:21:53;99142.78;;;-4.84;100.00
64521;BME280;50896;46.714;17.322;2024-01-15T02:24:20;99126.91;;;-4.79;100.00
64521;BME280;50896;46.714;17.322;2024-01-15T02:26:47;99119.50;;;-4.71;100.00
64521;BME280;50896;46.714;17.322;2024-01-15T02:29:15;99126.47;;;-4.71;100.00
64521;BME280;50896;46.714;17.322;2024-01-15T02:31:42;99120.16;;;-4.67;100.00
64521;BME280;50896;46.714;17.322;2024-01-15T02:34:09;99118.94;;;-4.61;100.00
64521;BME280;50896;46.714;17.322;2024-01-15T02:36:36;99116.84;;;-4.56;100.00
64521;BME280;50896;46.714;17.322;2024-01-15T02:39:02;99114.56;;;-4.61;100.00
64521;BME280;50896;46.714;17.322;2024-01-15T02:41:30;99112.72;;;-4.59;100.00
64521;BME280;50896;46.714;17.322;2024-01-15T02:43:57;99105.66;;;-4.57;100.00
64521;BME280;50896;46.714;17.322;2024-01-15T02:46:23;99103.50;;;-4.50;100.00
64521;BME280;50896;46.714;17.322;2024-01-15T02:48:50;99107.13;;;-4.53;100.00
64521;BME280;50896;46.714;17.322;2024-01-15T02:51:17;99113.44;;;-4.57;100.00
64521;BME280;50896;46.714;17.322;2024-01-15T02:53:44;99107.59;;;-4.60;100.00
64521;BME280;50896;46.714;17.322;2024-01-15T02:56:11;99107.13;;;-4.53;100.00
64521;BME280;50896;46.714;17.322;2024-01-15T02:58:38;99095.41;;;-4.46;100.00
64521;BME280;50896;46.714;17.322;2024-01-15T03:01:05;99091.91;;;-4.44;100.00
64521;BME280;50896;46.714;17.322;2024-01-15T03:03:32;99086.19;;;-4.37;100.00
64521;BME280;50896;46.714;17.322;2024-01-15T03:06:01;99076.13;;;-4.41;100.00
64521;BME280;50896;46.714;17.322;2024-01-15T03:08:28;99069.09;;;-4.39;100.00
64521;BME280;50896;46.714;17.322;2024-01-15T03:10:55;99072.25;;;-4.49;100.00
64521;BME280;50896;46.714;17.322;2024-01-15T03:13:22;99062.19;;;-4.53;100.00
64521;BME280;50896;46.714;17.322;2024-01-15T03:15:49;99077.41;;;-4.61;100.00
64521;BME280;50896;46.714;17.322;2024-01-15T03:18:16;99070.75;;;-4.66;100.00
64521;BME280;50896;46.714;17.322;2024-01-15T03:20:43;99081.03;;;-4.64;100.00
64521;BME280;50896;46.714;17.322;2024-01-15T03:23:10;99065.94;;;-4.72;100.00
64521;BME280;50896;46.714;17.322;2024-01-15T03:25:37;99072.50;;;-4.66;100.00
64521;BME280;50896;46.714;17.322;2024-01-15T03:28:04;99060.97;;;-4.75;100.00
64521;BME280;50896;46.714;17.322;2024-01-15T03:30:34;99064.47;;;-4.76;100.00
64521;BME280;50896;46.714;17.322;2024-01-15T03:33:01;99071.53;;;-4.78;100.00
64521;BME280;50896;46.714;17.322;2024-01-15T03:35:27;99060.72;;;-4.85;100.00
64521;BME280;50896;46.714;17.322;2024-01-15T03:37:56;99055.97;;;-4.78;100.00
64521;BME280;50896;46.714;17.322;2024-01-15T03:40:22;99057.16;;;-4.69;100.00
64521;BME280;50896;46.714;17.322;2024-01-15T03:42:50;99050.81;;;-4.78;100.00
64521;BME280;50896;46.714;17.322;2024-01-15T03:45:16;99055.34;;;-4.82;100.00
64521;BME280;50896;46.714;17.322;2024-01-15T03:47:44;99047.84;;;-4.86;100.00
64521;BME280;50896;46.714;17.322;2024-01-15T03:50:11;99046.44;;;-4.77;100.00
64521;BME280;50896;46.714;17.322;2024-01-15T03:52:37;99044.78;;;-4.78;100.00
64521;BME280;50896;46.714;17.322;2024-01-15T03:55:05;99029.41;;;-4.82;100.00
64521;BME280;50896;46.714;17.322;2024-01-15T03:57:32;99031.19;;;-4.82;100.00
64521;BME280;50896;46.714;17.322;2024-01-15T03:59:58;99027.00;;;-4.85;100.00
64521;BME280;50896;46.714;17.322;2024-01-15T04:02:25;99031.66;;;-4.90;100.00
64521;BME280;50896;46.714;17.322;2024-01-15T04:04:52;99031.34;;;-4.98;100.00
64521;BME280;50896;46.714;17.322;2024-01-15T04:07:19;99031.28;;;-4.84;100.00
64521;BME280;50896;46.714;17.322;2024-01-15T04:09:46;99035.88;;;-4.74;100.00
64521;BME280;50896;46.714;17.322;2024-01-15T04:12:13;99038.13;;;-4.83;100.00
64521;BME280;50896;46.714;17.322;2024-01-15T04:14:40;99046.44;;;-4.77;100.00
64521;BME280;50896;46.714;17.322;2024-01-15T04:17:06;99049.25;;;-4.68;100.00
64521;BME280;50896;46.714;17.322;2024-01-15T04:19:33;99050.72;;;-4.64;100.00
64521;BME280;50896;46.714;17.322;2024-01-15T04:22:00;99038.72;;;-4.65;100.00
64521;BME280;50896;46.714;17.322;2024-01-15T04:24:27;99040.09;;;-4.59;100.00
64521;BME280;50896;46.714;17.322;2024-01-15T04:26:55;99036.75;;;-4.61;100.00
64521;BME280;50896;46.714;17.322;2024-01-15T04:29:22;99032.91;;;-4.55;100.00
64521;BME280;50896;46.714;17.322;2024-01-15T04:31:49;99029.19;;;-4.51;100.00
64521;BME280;50896;46.714;17.322;2024-01-15T04:34:16;99027.81;;;-4.57;100.00
64521;BME280;50896;46.714;17.322;2024-01-15T04:36:43;99033.13;;;-4.58;100.00
64521;BME280;50896;46.714;17.322;2024-01-15T04:39:09;99021.41;;;-4.51;100.00
64521;BME280;50896;46.714;17.322;2024-01-15T04:41:38;99039.38;;;-4.48;100.00
64521;BME280;50896;46.714;17.322;2024-01-15T04:44:05;99039.25;;;-4.47;100.00
64521;BME280;50896;46.714;17.322;2024-01-15T04:46:32;99050.69;;;-4.49;100.00
64521;BME280;50896;46.714;17.322;2024-01-15T04:48:59;99045.84;;;-4.41;100.00
64521;BME280;50896;46.714;17.322;2024-01-15T04:51:26;99052.97;;;-4.44;100.00
64521;BME280;50896;46.714;17.322;2024-01-15T04:53:53;99061.31;;;-4.39;100.00
64521;BME280;50896;46.714;17.322;2024-01-15T04:56:19;99058.81;;;-4.41;100.00
64521;BME280;50896;46.714;17.322;2024-01-15T04:58:46;99050.72;;;-4.36;100.00
64521;BME280;50896;46.714;17.322;2024-01-15T05:01:15;99034.50;;;-4.27;100.00
64521;BME280;50896;46.714;17.322;2024-01-15T05:03:43;99033.81;;;-4.29;100.00
64521;BME280;50896;46.714;17.322;2024-01-15T05:06:10;99032.66;;;-4.25;100.00
64521;BME280;50896;46.714;17.322;2024-01-15T05:08:37;99034.13;;;-4.34;100.00
64521;BME280;50896;46.714;17.322;2024-01-15T05:11:03;99036.16;;;-4.39;100.00
64521;BME280;50896;46.714;17.322;2024-01-15T05:13:30;99030.44;;;-4.44;100.00
64521;BME280;50896;46.714;17.322;2024-01-15T05:15:57;99028.16;;;-4.49;100.00
64521;BME280;50896;46.714;17.322;2024-01-15T05:18:24;99042.38;;;-4.41;100.00
64521;BME280;50896;46.714;17.322;2024-01-15T05:20:51;99033.59;;;-4.39;100.00
64521;BME280;50896;46.714;17.322;2024-01-15T05:23:19;99032.00;;;-4.41;100.00
64521;BME280;50896;46.714;17.322;2024-01-15T05:25:46;99030.78;;;-4.36;100.00
64521;BME280;50896;46.714;17.322;2024-01-15T05:28:14;99029.22;;;-4.38;100.00
64521;BME280;50896;46.714;17.322;2024-01-15T05:30:40;99031.47;;;-4.47;100.00
64521;BME280;50896;46.714;17.322;2024-01-15T05:33:07;99031.47;;;-4.47;100.00
64521;BME280;50896;46.714;17.322;2024-01-15T05:35:35;99032.22;;;-4.44;100.00
64521;BME280;50896;46.714;17.322;2024-01-15T05:38:02;99027.44;;;-4.51;100.00
64521;BME280;50896;46.714;17.322;2024-01-15T05:40:29;99034.69;;;-4.56;100.00
64521;BME280;50896;46.714;17.322;2024-01-15T05:42:56;99037.28;;;-4.56;100.00
64521;BME280;50896;46.714;17.322;2024-01-15T05:45:23;99028.75;;;-4.58;100.00
64521;BME280;50896;46.714;17.322;2024-01-15T05:47:50;99023.47;;;-4.56;100.00
64521;BME280;50896;46.714;17.322;2024-01-15T05:50:17;99030.13;;;-4.52;100.00
64521;BME280;50896;46.714;17.322;2024-01-15T05:52:44;99025.88;;;-4.53;100.00
64521;BME280;50896;46.714;17.322;2024-01-15T05:55:11;99024.53;;;-4.46;100.00
64521;BME280;50896;46.714;17.322;2024-01-15T05:57:38;99022.75;;;-4.46;100.00
64521;BME280;50896;46.714;17.322;2024-01-15T06:00:05;99026.94;;;-4.43;100.00
64521;BME280;50896;46.714;17.322;2024-01-15T06:02:33;99032.94;;;-4.42;100.00
64521;BME280;50896;46.714;17.322;2024-01-15T06:05:00;99043.13;;;-4.39;100.00
64521;BME280;50896;46.714;17.322;2024-01-15T06:07:28;99043.53;;;-4.46;100.00
64521;BME280;50896;46.714;17.322;2024-01-15T06:09:55;99040.81;;;-4.44;100.00
64521;BME280;50896;46.714;17.322;2024-01-15T06:12:23;99044.19;;;-4.29;100.00
64521;BME280;50896;46.714;17.322;2024-01-15T06:14:50;99036.06;;;-4.37;100.00
64521;BME280;50896;46.714;17.322;2024-01-15T06:17:17;99046.56;;;-4.39;100.00
64521;BME280;50896;46.714;17.322;2024-01-15T06:19:44;99047.38;;;-4.38;100.00
64521;BME280;50896;46.714;17.322;2024-01-15T06:22:11;99047.38;;;-4.38;100.00
64521;BME280;50896;46.714;17.322;2024-01-15T06:24:39;99043.13;;;-4.39;100.00
64521;BME280;50896;46.714;17.322;2024-01-15T06:27:06;99047.38;;;-4.38;100.00
64521;BME280;50896;46.714;17.322;2024-01-15T06:29:33;99032.22;;;-4.44;100.00
64521;BME280;50896;46.714;17.322;2024-01-15T06:31:59;99033.88;;;-4.43;100.00
64521;BME280;50896;46.714;17.322;2024-01-15T06:34:26;99038.06;;;-4.41;100.00
64521;BME280;50896;46.714;17.322;2024-01-15T06:36:53;99047.88;;;-4.46;100.00
64521;BME280;50896;46.714;17.322;2024-01-15T06:39:21;99056.50;;;-4.46;100.00
64521;BME280;50896;46.714;17.322;2024-01-15T06:41:48;99050.03;;;-4.53;100.00
64521;BME280;50896;46.714;17.322;2024-01-15T06:44:14;99061.41;;;-4.41;100.00
64521;BME280;50896;46.714;17.322;2024-01-15T06:46:43;99065.44;;;-4.37;100.00
64521;BME280;50896;46.714;17.322;2024-01-15T06:49:10;99065.16;;;-4.32;100.00
64521;BME280;50896;46.714;17.322;2024-01-15T06:51:38;99069.22;;;-4.15;100.00
64521;BME280;50896;46.714;17.322;2024-01-15T06:54:05;99074.75;;;-4.07;100.00
64521;BME280;50896;46.714;17.322;2024-01-15T06:56:32;99078.38;;;-3.97;100.00
64521;BME280;50896;46.714;17.322;2024-01-15T06:58:59;99080.59;;;-3.90;100.00
64521;BME280;50896;46.714;17.322;2024-01-15T07:01:26;99090.53;;;-3.84;100.00
64521;BME280;50896;46.714;17.322;2024-01-15T07:03:53;99082.16;;;-3.75;100.00
64521;BME280;50896;46.714;17.322;2024-01-15T07:06:20;99086.69;;;-3.66;100.00
64521;BME280;50896;46.714;17.322;2024-01-15T07:08:47;99082.66;;;-3.57;100.00
64521;BME280;50896;46.714;17.322;2024-01-15T07:11:26;99088.34;;;-3.52;100.00
64521;BME280;50896;46.714;17.322;2024-01-15T07:14:17;99093.47;;;-3.37;100.00
64521;BME280;50896;46.714;17.322;2024-01-15T07:20:24;99097.69;;;-3.11;100.00
64521;BME280;50896;46.714;17.322;2024-01-15T07:23:34;99099.19;;;-2.95;100.00
64521;BME280;50896;46.714;17.322;2024-01-15T07:26:23;99106.56;;;-2.89;100.00
64521;BME280;50896;46.714;17.322;2024-01-15T07:29:31;99097.75;;;-2.75;100.00
64521;BME280;50896;46.714;17.322;2024-01-15T07:31:59;99101.81;;;-2.71;100.00
64521;BME280;50896;46.714;17.322;2024-01-15T07:34:27;99116.16;;;-2.65;100.00
64521;BME280;50896;46.714;17.322;2024-01-15T07:36:54;99120.09;;;-2.60;100.00
64521;BME280;50896;46.714;17.322;2024-01-15T07:39:21;99135.63;;;-2.58;100.00
64521;BME280;50896;46.714;17.322;2024-01-15T07:41:50;99136.84;;;-2.51;100.00
64521;BME280;50896;46.714;17.322;2024-01-15T07:44:17;99148.88;;;-2.50;100.00
64521;BME280;50896;46.714;17.322;2024-01-15T07:46:45;99137.81;;;-2.41;100.00
64521;BME280;50896;46.714;17.322;2024-01-15T07:49:12;99152.34;;;-2.49;100.00
64521;BME280;50896;46.714;17.322;2024-01-15T07:51:39;99157.97;;;-2.55;100.00
64521;BME280;50896;46.714;17.322;2024-01-15T07:54:07;99147.38;;;-2.65;100.00
64521;BME280;50896;46.714;17.322;2024-01-15T07:56:34;99152.41;;;-2.75;100.00
64521;BME280;50896;46.714;17.322;2024-01-15T07:59:01;99159.63;;;-2.79;100.00
64521;BME280;50896;46.714;17.322;2024-01-15T08:01:27;99160.53;;;-2.80;100.00
64521;BME280;50896;46.714;17.322;2024-01-15T08:03:54;99163.88;;;-2.78;100.00
64521;BME280;50896;46.714;17.322;2024-01-15T08:06:22;99159.50;;;-2.77;100.00
64521;BME280;50896;46.714;17.322;2024-01-15T08:08:49;99165.41;;;-2.75;100.00
64521;BME280;50896;46.714;17.322;2024-01-15T08:11:16;99165.81;;;-2.68;100.00
64521;BME280;50896;46.714;17.322;2024-01-15T08:13:43;99162.81;;;-2.62;100.00
64521;BME280;50896;46.714;17.322;2024-01-15T08:16:09;99164.63;;;-2.51;100.00
64521;BME280;50896;46.714;17.322;2024-01-15T08:18:37;99165.88;;;-2.57;100.00
64521;BME280;50896;46.714;17.322;2024-01-15T08:21:04;99166.84;;;-2.58;100.00
64521;BME280;50896;46.714;17.322;2024-01-15T08:23:31;99170.78;;;-2.52;100.00
64521;BME280;50896;46.714;17.322;2024-01-15T08:25:58;99178.88;;;-2.44;100.00
64521;BME280;50896;46.714;17.322;2024-01-15T08:28:25;99181.91;;;-2.26;100.00
64521;BME280;50896;46.714;17.322;2024-01-15T08:30:51;99185.81;;;-2.08;100.00
64521;BME280;50896;46.714;17.322;2024-01-15T08:33:18;99181.72;;;-1.87;100.00
64521;BME280;50896;46.714;17.322;2024-01-15T08:35:48;99173.63;;;-1.72;100.00
64521;BME280;50896;46.714;17.322;2024-01-15T08:38:15;99175.56;;;-1.51;100.00
64521;BME280;50896;46.714;17.322;2024-01-15T08:40:41;99172.97;;;-1.40;100.00
64521;BME280;50896;46.714;17.322;2024-01-15T08:43:08;99188.16;;;-1.22;100.00
64521;BME280;50896;46.714;17.322;2024-01-15T08:45:35;99171.94;;;-1.14;100.00
64521;BME280;50896;46.714;17.322;2024-01-15T08:48:02;99176.19;;;-1.02;100.00
64521;BME280;50896;46.714;17.322;2024-01-15T08:50:31;99169.34;;;-0.92;100.00
64521;BME280;50896;46.714;17.322;2024-01-15T08:52:59;99162.31;;;-0.80;100.00
64521;BME280;50896;46.714;17.322;2024-01-15T08:55:25;99157.19;;;-0.70;100.00
64521;BME280;50896;46.714;17.322;2024-01-15T08:57:52;99153.53;;;-0.67;100.00
64521;BME280;50896;46.714;17.322;2024-01-15T09:00:19;99162.50;;;-0.49;100.00
64521;BME280;50896;46.714;17.322;2024-01-15T09:02:46;99158.25;;;-0.50;100.00
64521;BME280;50896;46.714;17.322;2024-01-15T09:05:13;99160.47;;;-0.45;100.00
64521;BME280;50896;46.714;17.322;2024-01-15T09:07:41;99159.16;;;-0.40;100.00
64521;BME280;50896;46.714;17.322;2024-01-15T09:10:08;99158.31;;;-0.29;100.00
64521;BME280;50896;46.714;17.322;2024-01-15T09:12:34;99157.56;;;-0.20;100.00
64521;BME280;50896;46.714;17.322;2024-01-15T09:15:01;99166.88;;;-0.06;100.00
64521;BME280;50896;46.714;17.322;2024-01-15T09:17:31;99162.19;;;0.09;100.00
64521;BME280;50896;46.714;17.322;2024-01-15T09:19:58;99164.88;;;0.19;100.00
64521;BME280;50896;46.714;17.322;2024-01-15T09:22:26;99161.94;;;0.33;100.00
64521;BME280;50896;46.714;17.322;2024-01-15T09:24:53;99160.56;;;0.50;100.00
64521;BME280;50896;46.714;17.322;2024-01-15T09:27:20;99172.34;;;0.66;100.00
64521;BME280;50896;46.714;17.322;2024-01-15T09:29:47;99160.84;;;0.78;100.00
64521;BME280;50896;46.714;17.322;2024-01-15T09:32:14;99165.75;;;0.93;100.00
64521;BME280;50896;46.714;17.322;2024-01-15T09:34:42;99151.34;;;1.08;100.00
64521;BME280;50896;46.714;17.322;2024-01-15T09:37:09;99153.19;;;1.27;100.00
64521;BME280;50896;46.714;17.322;2024-01-15T09:39:44;99141.25;;;1.44;100.00
64521;BME280;50896;46.714;17.322;2024-01-15T09:42:11;99141.81;;;1.67;100.00
64521;BME280;50896;46.714;17.322;2024-01-15T09:44:38;99134.38;;;1.82;100.00
64521;BME280;50896;46.714;17.322;2024-01-15T09:47:05;99141.56;;;2.00;100.00
64521;BME280;50896;46.714;17.322;2024-01-15T09:49:32;99136.03;;;2.13;100.00
64521;BME280;50896;46.714;17.322;2024-01-15T09:52:00;99132.16;;;2.27;100.00
64521;BME280;50896;46.714;17.322;2024-01-15T09:54:37;99124.69;;;2.42;100.00
64521;BME280;50896;46.714;17.322;2024-01-15T09:57:06;99120.09;;;2.53;100.00
64521;BME280;50896;46.714;17.322;2024-01-15T09:59:33;99122.53;;;2.65;100.00
64521;BME280;50896;46.714;17.322;2024-01-15T10:02:01;99125.44;;;2.71;100.00
64521;BME280;50896;46.714;17.322;2024-01-15T10:04:29;99112.28;;;2.81;100.00
64521;BME280;50896;46.714;17.322;2024-01-15T10:06:57;99110.31;;;2.93;100.00
64521;BME280;50896;46.714;17.322;2024-01-15T10:09:27;99112.88;;;3.03;100.00
64521;BME280;50896;46.714;17.322;2024-01-15T10:11:54;99108.25;;;3.15;100.00
64521;BME280;50896;46.714;17.322;2024-01-15T10:14:21;99102.94;;;3.24;100.00
64521;BME280;50896;46.714;17.322;2024-01-15T10:16:48;99092.91;;;3.38;100.00
64521;BME280;50896;46.714;17.322;2024-01-15T10:19:15;99089.38;;;3.47;100.00
64521;BME280;50896;46.714;17.322;2024-01-15T10:21:42;99089.03;;;3.60;100.00
64521;BME280;50896;46.714;17.322;2024-01-15T10:24:09;99080.31;;;3.78;100.00
64521;BME280;50896;46.714;17.322;2024-01-15T10:26:36;99071.06;;;3.91;100.00
64521;BME280;50896;46.714;17.322;2024-01-15T10:29:03;99071.78;;;4.02;100.00
64521;BME280;50896;46.714;17.322;2024-01-15T10:31:30;99063.94;;;4.10;100.00
64521;BME280;50896;46.714;17.322;2024-01-15T10:34:10;99058.31;;;4.23;100.00
64521;BME280;50896;46.714;17.322;2024-01-15T10:36:39;99061.28;;;4.28;100.00
64521;BME280;50896;46.714;17.322;2024-01-15T10:39:06;99050.81;;;4.36;100.00
64521;BME280;50896;46.714;17.322;2024-01-15T10:41:34;99046.28;;;4.47;100.00
64521;BME280;50896;46.714;17.322;2024-01-15T10:44:01;99038.56;;;4.53;100.00
64521;BME280;50896;46.714;17.322;2024-01-15T10:46:28;99033.00;;;4.65;100.00
64521;BME280;50896;46.714;17.322;2024-01-15T10:48:56;99037.66;;;4.71;100.00
64521;BME280;50896;46.714;17.322;2024-01-15T10:51:23;99031.88;;;4.67;100.00
64521;BME280;50896;46.714;17.322;2024-01-15T10:53:53;99029.78;;;4.71;100.00
64521;BME280;50896;46.714;17.322;2024-01-15T10:56:21;99020.25;;;4.78;100.00
64521;BME280;50896;46.714;17.322;2024-01-15T10:58:52;99022.56;;;4.81;100.00
64521;BME280;50896;46.714;17.322;2024-01-15T11:01:25;99014.78;;;4.71;100.00
64521;BME280;50896;46.714;17.322;2024-01-15T11:03:56;99014.66;;;4.81;100.00
64521;BME280;50896;46.714;17.322;2024-01-15T11:06:24;99005.00;;;4.98;100.00
64521;BME280;50896;46.714;17.322;2024-01-15T11:08:52;99009.50;;;5.14;100.00
64521;BME280;50896;46.714;17.322;2024-01-15T11:11:21;98994.00;;;5.03;100.00
64521;BME280;50896;46.714;17.322;2024-01-15T11:13:48;98996.47;;;5.12;100.00
64521;BME280;50896;46.714;17.322;2024-01-15T11:16:18;98994.38;;;5.41;100.00
64521;BME280;50896;46.714;17.322;2024-01-15T11:21:25;98976.09;;;5.64;100.00
64521;BME280;50896;46.714;17.322;2024-01-15T11:23:59;98974.72;;;5.93;100.00
64521;BME280;50896;46.714;17.322;2024-01-15T11:26:44;98970.81;;;5.64;100.00
64521;BME280;50896;46.714;17.322;2024-01-15T11:32:03;98968.19;;;5.64;100.00
64521;BME280;50896;46.714;17.322;2024-01-15T11:37:18;98941.94;;;8.06;100.00
64521;BME280;50896;46.714;17.322;2024-01-15T11:39:45;98941.03;;;7.22;100.00
64521;BME280;50896;46.714;17.322;2024-01-15T11:42:15;98939.50;;;6.42;100.00
64521;BME280;50896;46.714;17.322;2024-01-15T11:44:42;98935.56;;;5.57;100.00
64521;BME280;50896;46.714;17.322;2024-01-15T11:47:10;98949.69;;;4.90;100.00
64521;BME280;50896;46.714;17.322;2024-01-15T11:54:31;98946.88;;;4.06;100.00
64521;BME280;50896;46.714;17.322;2024-01-15T11:57:03;98947.41;;;3.83;100.00
64521;BME280;50896;46.714;17.322;2024-01-15T11:59:30;98943.47;;;3.61;100.00
64521;BME280;50896;46.714;17.322;2024-01-15T12:01:57;98940.13;;;3.51;100.00
64521;BME280;50896;46.714;17.322;2024-01-15T12:08:44;98938.34;;;3.15;100.00
64521;BME280;50896;46.714;17.322;2024-01-15T12:11:13;98939.03;;;2.99;100.00
64521;BME280;50896;46.714;17.322;2024-01-15T12:13:42;98937.22;;;2.82;100.00
64521;BME280;50896;46.714;17.322;2024-01-15T12:16:09;98942.41;;;2.73;100.00
64521;BME280;50896;46.714;17.322;2024-01-15T12:18:36;98934.31;;;2.85;100.00
64521;BME280;50896;46.714;17.322;2024-01-15T12:21:04;98934.53;;;2.73;100.00
64521;BME280;50896;46.714;17.322;2024-01-15T12:23:30;98922.94;;;2.66;100.00
64521;BME280;50896;46.714;17.322;2024-01-15T12:26:09;98917.84;;;2.65;100.00
64521;BME280;50896;46.714;17.322;2024-01-15T12:28:37;98919.66;;;2.64;100.00
64521;BME280;50896;46.714;17.322;2024-01-15T12:31:05;98933.41;;;2.48;100.00
64521;BME280;50896;46.714;17.322;2024-01-15T12:33:33;98929.94;;;2.30;100.00
64521;BME280;50896;46.714;17.322;2024-01-15T12:36:00;98924.28;;;2.25;100.00
64521;BME280;50896;46.714;17.322;2024-01-15T12:38:28;98924.38;;;2.33;100.00
64521;BME280;50896;46.714;17.322;2024-01-15T12:40:55;98926.44;;;2.39;100.00
64521;BME280;50896;46.714;17.322;2024-01-15T12:43:21;98920.06;;;2.14;100.00
64521;BME280;50896;46.714;17.322;2024-01-15T12:45:48;98918.91;;;1.98;100.00
64521;BME280;50896;46.714;17.322;2024-01-15T12:48:16;98924.28;;;1.87;100.00
64521;BME280;50896;46.714;17.322;2024-01-15T12:50:45;98924.72;;;1.82;100.00
64521;BME280;50896;46.714;17.322;2024-01-15T12:53:12;98913.94;;;1.85;100.00
64521;BME280;50896;46.714;17.322;2024-01-15T13:12:02;98922.91;;;1.35;100.00
64521;BME280;50896;46.714;17.322;2024-01-15T13:18:42;98899.44;;;1.34;100.00
64521;BME280;50896;46.714;17.322;2024-01-15T13:21:10;98898.06;;;1.49;100.00
64521;BME280;50896;46.714;17.322;2024-01-15T13:23:37;98893.19;;;1.64;100.00
64521;BME280;50896;46.714;17.322;2024-01-15T13:26:04;98886.97;;;1.75;100.00
64521;BME280;50896;46.714;17.322;2024-01-15T13:28:31;98899.63;;;1.80;100.00
64521;BME280;50896;46.714;17.322;2024-01-15T13:30:58;98902.75;;;1.93;100.00
64521;BME280;50896;46.714;17.322;2024-01-15T13:33:25;98895.69;;;2.03;100.00
64521;BME280;50896;46.714;17.322;2024-01-15T13:35:53;98893.56;;;2.17;100.00